Time;durP1;ratioP1;P1;durP2;ratioP2;P2;SDS_P1;SDS_P2;PMS_P1;PMS_P2;Temp;Humidity;BMP_temperature;BMP_pressure;BME280_temperature;BME280_humidity;BME280_pressure;Samples;Min_cycle;Max_cycle;Signal;HPM_P1;HPM_P2
2020/12/15 00:01:22;;;;;;;21.88;13.15;;;2.80;85.50;;;;;;5028386;28;20036;-72
2020/12/15 00:03:51;;;;;;;20.38;13.95;;;2.80;85.70;;;;;;5031410;28;20029;-71
2020/12/15 00:06:17;;;;;;;19.27;12.82;;;2.80;85.40;;;;;;5025711;28;20029;-70
2020/12/15 00:08:44;;;;;;;20.48;13.77;;;2.80;85.50;;;;;;5027401;28;20116;-73
2020/12/15 00:11:15;;;;;;;19.38;13.77;;;2.80;85.90;;;;;;5031253;28;20041;-74
2020/12/15 00:13:46;;;;;;;19.95;12.93;;;2.70;86.30;;;;;;5030283;28;20025;-71
2020/12/15 00:16:31;;;;;;;18.63;12.00;;;2.80;86.70;;;;;;5025513;28;20025;-71
2020/12/15 00:18:56;;;;;;;19.38;13.52;;;2.80;86.00;;;;;;5029922;28;20540;-72
2020/12/15 00:21:24;;;;;;;21.35;13.65;;;2.80;86.00;;;;;;5032418;28;20033;-71
2020/12/15 00:23:53;;;;;;;19.52;13.00;;;2.90;86.30;;;;;;5029748;28;21161;-70
2020/12/15 00:26:20;;;;;;;20.58;13.35;;;2.90;85.40;;;;;;5018594;28;20033;-70
2020/12/15 00:28:49;;;;;;;21.27;14.05;;;2.90;85.50;;;;;;5033123;28;20117;-73
2020/12/15 00:31:17;;;;;;;23.05;14.25;;;2.80;85.90;;;;;;5031236;28;20046;-72
2020/12/15 00:33:43;;;;;;;19.67;13.98;;;2.80;86.60;;;;;;5029864;28;20033;-71
2020/12/15 00:36:09;;;;;;;23.27;14.05;;;2.90;85.70;;;;;;5031670;28;20099;-72
2020/12/15 00:38:36;;;;;;;21.10;13.30;;;2.90;85.40;;;;;;5030117;28;20037;-71
2020/12/15 00:41:03;;;;;;;21.33;14.57;;;2.80;85.80;;;;;;5028949;28;20030;-71
2020/12/15 00:43:28;;;;;;;20.30;14.20;;;2.90;85.70;;;;;;5030688;28;20030;-71
2020/12/15 00:46:00;;;;;;;25.95;15.60;;;2.80;85.90;;;;;;5029580;28;20029;-71
2020/12/15 00:48:30;;;;;;;22.38;14.70;;;2.80;86.40;;;;;;5028837;28;20033;-69
2020/12/15 00:50:56;;;;;;;22.50;14.13;;;2.90;85.90;;;;;;5027630;28;20237;-71
2020/12/15 00:53:25;;;;;;;21.30;14.07;;;2.80;85.50;;;;;;5021745;28;20038;-70
2020/12/15 00:55:52;;;;;;;22.17;14.35;;;2.90;85.80;;;;;;5029596;28;20041;-70
2020/12/15 00:58:18;;;;;;;21.83;13.80;;;2.90;85.30;;;;;;5030706;28;20120;-72
2020/12/15 01:00:43;;;;;;;26.35;16.42;;;2.90;85.60;;;;;;5028197;28;20181;-71
2020/12/15 01:03:09;;;;;;;22.50;14.05;;;2.90;85.80;;;;;;5030536;28;20041;-72
2020/12/15 01:05:35;;;;;;;25.05;16.48;;;2.90;85.80;;;;;;5030074;28;20516;-71
2020/12/15 01:08:00;;;;;;;23.23;15.95;;;2.90;85.60;;;;;;5029728;28;20029;-70
2020/12/15 01:10:26;;;;;;;22.05;14.35;;;2.80;86.40;;;;;;5030962;28;20108;-72
2020/12/15 01:12:52;;;;;;;21.73;13.85;;;2.80;86.30;;;;;;5030707;28;20034;-71
2020/12/15 01:15:18;;;;;;;25.58;15.23;;;2.80;86.30;;;;;;5027786;28;20034;-71
2020/12/15 01:17:43;;;;;;;23.52;15.82;;;2.80;86.40;;;;;;5030984;28;20612;-69
2020/12/15 01:20:09;;;;;;;24.38;15.68;;;2.80;86.40;;;;;;5030885;28;20038;-72
2020/12/15 01:22:34;;;;;;;22.80;15.55;;;2.80;86.10;;;;;;5032294;28;20390;-71
2020/12/15 01:25:00;;;;;;;23.00;13.98;;;2.90;86.00;;;;;;5030195;28;20160;-73
2020/12/15 01:27:26;;;;;;;23.30;15.23;;;2.90;85.90;;;;;;5026551;28;20053;-73
2020/12/15 01:29:52;;;;;;;21.48;13.40;;;2.90;85.80;;;;;;5025992;28;20033;-72
2020/12/15 01:32:18;;;;;;;24.33;16.10;;;2.90;85.70;;;;;;5027276;28;20056;-72
2020/12/15 01:34:43;;;;;;;21.45;14.60;;;2.80;86.50;;;;;;5031140;28;20040;-72
2020/12/15 01:37:09;;;;;;;25.55;15.60;;;2.80;86.40;;;;;;5027540;28;20033;-71
2020/12/15 01:39:35;;;;;;;26.25;16.80;;;2.70;86.40;;;;;;5027494;28;20505;-71
2020/12/15 01:42:00;;;;;;;23.98;14.88;;;2.70;86.90;;;;;;5025438;28;20041;-70
2020/12/15 01:44:26;;;;;;;25.35;16.23;;;2.70;86.90;;;;;;5025714;28;20022;-71
2020/12/15 01:46:52;;;;;;;25.08;15.82;;;2.70;86.90;;;;;;5030052;28;20555;-73
2020/12/15 01:49:19;;;;;;;22.55;14.70;;;2.70;87.20;;;;;;5029040;28;20475;-71
2020/12/15 01:51:45;;;;;;;21.75;14.80;;;2.70;87.10;;;;;;5029504;28;20044;-73
2020/12/15 01:54:12;;;;;;;24.67;15.57;;;2.70;87.10;;;;;;5008468;28;20376;-73
2020/12/15 01:56:38;;;;;;;24.02;16.75;;;2.70;87.20;;;;;;5030010;28;20029;-71
2020/12/15 01:59:04;;;;;;;22.27;15.00;;;2.70;87.50;;;;;;5030206;28;20034;-73
2020/12/15 02:01:42;;;;;;;21.35;14.23;;;2.70;87.60;;;;;;5030787;28;20049;-71
2020/12/15 02:04:08;;;;;;;23.23;15.10;;;2.80;87.00;;;;;;5028392;28;20029;-73
2020/12/15 02:06:33;;;;;;;23.77;15.48;;;2.80;86.90;;;;;;5028287;28;20047;-72
2020/12/15 02:08:59;;;;;;;23.00;14.60;;;2.70;87.10;;;;;;5029282;28;20025;-71
2020/12/15 02:11:27;;;;;;;21.25;14.27;;;2.70;87.20;;;;;;5028696;28;20762;-72
2020/12/15 02:13:53;;;;;;;23.05;14.20;;;2.80;87.20;;;;;;5018036;28;20528;-70
2020/12/15 02:16:19;;;;;;;20.55;13.52;;;2.70;87.30;;;;;;5030010;28;20064;-72
2020/12/15 02:18:45;;;;;;;27.15;16.33;;;2.70;87.20;;;;;;5029388;28;20030;-71
2020/12/15 02:21:11;;;;;;;23.50;16.15;;;2.70;87.40;;;;;;5030322;28;20025;-71
2020/12/15 02:23:37;;;;;;;25.42;16.65;;;2.70;87.60;;;;;;5029830;28;20041;-73
2020/12/15 02:26:05;;;;;;;23.52;14.45;;;2.70;87.60;;;;;;5029051;28;20034;-73
2020/12/15 02:28:31;;;;;;;25.70;15.65;;;2.70;87.80;;;;;;5031394;28;20111;-72
2020/12/15 02:30:57;;;;;;;25.42;15.60;;;2.70;87.90;;;;;;5026503;28;20513;-72
2020/12/15 02:33:23;;;;;;;28.95;16.38;;;2.70;88.10;;;;;;5024871;28;20029;-73
2020/12/15 02:35:51;;;;;;;25.92;15.95;;;2.60;88.30;;;;;;5024588;28;20029;-72
2020/12/15 02:38:16;;;;;;;24.95;16.17;;;2.60;88.40;;;;;;5019488;28;20049;-71
2020/12/15 02:40:42;;;;;;;26.38;15.65;;;2.60;88.60;;;;;;5031688;28;20479;-71
2020/12/15 02:43:08;;;;;;;28.02;17.27;;;2.60;88.70;;;;;;5026865;28;20079;-72
2020/12/15 02:45:34;;;;;;;28.80;15.50;;;2.60;89.10;;;;;;5026641;28;20041;-71
2020/12/15 02:47:59;;;;;;;24.67;16.08;;;2.50;88.90;;;;;;5025505;28;20112;-73
2020/12/15 02:50:26;;;;;;;25.13;15.95;;;2.50;89.00;;;;;;5029147;28;20022;-73
2020/12/15 02:52:52;;;;;;;26.92;15.95;;;2.50;89.10;;;;;;5027204;28;20026;-72
2020/12/15 02:55:18;;;;;;;29.52;16.75;;;2.40;89.00;;;;;;5028455;28;20026;-73
2020/12/15 02:57:47;;;;;;;30.20;15.98;;;2.40;89.60;;;;;;5026835;28;20088;-73
2020/12/15 03:00:12;;;;;;;22.23;14.95;;;2.30;89.40;;;;;;5030151;28;20021;-72
2020/12/15 03:02:38;;;;;;;24.48;15.20;;;2.30;89.30;;;;;;5027423;28;20426;-71
2020/12/15 03:05:05;;;;;;;24.27;14.52;;;2.30;89.30;;;;;;5030334;28;20033;-73
2020/12/15 03:07:31;;;;;;;23.58;14.55;;;2.30;89.00;;;;;;5032727;28;20040;-71
2020/12/15 03:09:58;;;;;;;22.48;14.65;;;2.30;88.80;;;;;;5030812;28;20482;-71
2020/12/15 03:12:24;;;;;;;22.55;12.93;;;2.20;88.80;;;;;;5032553;28;20053;-73
2020/12/15 03:14:50;;;;;;;24.55;13.43;;;2.20;88.60;;;;;;5032066;28;20458;-73
2020/12/15 03:17:16;;;;;;;25.58;14.35;;;2.20;88.20;;;;;;5022817;28;20030;-72
2020/12/15 03:19:42;;;;;;;22.30;12.80;;;2.20;88.20;;;;;;5035680;28;20383;-73
2020/12/15 03:22:09;;;;;;;22.38;14.18;;;2.20;88.70;;;;;;5031190;28;20037;-73
2020/12/15 03:24:34;;;;;;;26.40;13.75;;;2.20;88.10;;;;;;5032060;28;20022;-72
2020/12/15 03:27:00;;;;;;;27.23;14.73;;;2.30;88.20;;;;;;5030554;28;20075;-72
2020/12/15 03:29:26;;;;;;;22.40;13.65;;;2.20;88.30;;;;;;5031659;28;20026;-73
2020/12/15 03:31:52;;;;;;;25.98;14.77;;;2.20;88.00;;;;;;5033872;28;20067;-72
2020/12/15 03:34:17;;;;;;;26.63;14.77;;;2.20;88.20;;;;;;5033048;28;20030;-73
2020/12/15 03:36:43;;;;;;;20.70;13.32;;;2.20;88.40;;;;;;5032829;28;20026;-71
2020/12/15 03:39:09;;;;;;;22.67;13.40;;;2.20;88.40;;;;;;5031610;28;20095;-70
2020/12/15 03:41:35;;;;;;;23.45;13.68;;;2.20;88.50;;;;;;5031076;28;20124;-70
2020/12/15 03:44:01;;;;;;;26.58;14.63;;;2.20;88.20;;;;;;5033984;28;20391;-72
2020/12/15 03:46:27;;;;;;;27.48;15.10;;;2.20;88.20;;;;;;5034570;28;20032;-71
2020/12/15 03:48:53;;;;;;;27.50;14.40;;;2.20;88.30;;;;;;5031331;28;20071;-73
2020/12/15 03:51:19;;;;;;;28.52;14.93;;;2.20;88.60;;;;;;5031889;28;20013;-72
2020/12/15 03:53:44;;;;;;;29.73;17.23;;;2.20;88.50;;;;;;5031423;28;20371;-72
2020/12/15 03:56:11;;;;;;;31.05;16.35;;;2.10;88.90;;;;;;5031515;28;20030;-72
2020/12/15 03:58:37;;;;;;;30.35;16.52;;;2.10;89.40;;;;;;5033367;28;20104;-71
2020/12/15 04:01:04;;;;;;;30.38;16.52;;;2.20;89.20;;;;;;5030664;28;20132;-71
2020/12/15 04:03:30;;;;;;;32.55;17.05;;;2.10;89.20;;;;;;5031321;28;20080;-70
2020/12/15 04:05:56;;;;;;;30.98;17.77;;;2.10;89.40;;;;;;5032726;28;20033;-73
2020/12/15 04:08:22;;;;;;;34.78;17.15;;;2.20;89.40;;;;;;5033675;28;20024;-71
2020/12/15 04:10:50;;;;;;;38.03;19.40;;;2.20;89.60;;;;;;5033700;28;20026;-72
2020/12/15 04:13:16;;;;;;;33.80;18.13;;;2.20;89.60;;;;;;5032286;28;20032;-71
2020/12/15 04:15:42;;;;;;;35.75;17.70;;;2.20;89.60;;;;;;5030627;28;20471;-71
2020/12/15 04:18:08;;;;;;;36.95;19.00;;;2.20;89.40;;;;;;5031155;28;20033;-73
2020/12/15 04:20:35;;;;;;;38.00;19.55;;;2.20;89.70;;;;;;5045128;28;20036;-72
2020/12/15 04:23:00;;;;;;;43.03;20.35;;;2.20;89.90;;;;;;5031506;28;20033;-71
2020/12/15 04:25:26;;;;;;;38.28;19.50;;;2.10;90.00;;;;;;5034001;28;20021;-70
2020/12/15 04:27:52;;;;;;;38.08;20.52;;;2.10;90.20;;;;;;5030754;28;20340;-73
2020/12/15 04:30:19;;;;;;;37.65;19.58;;;2.10;90.20;;;;;;5032182;28;20033;-70
2020/12/15 04:32:48;;;;;;;38.35;19.90;;;2.10;90.20;;;;;;5029257;28;20032;-72
2020/12/15 04:35:14;;;;;;;40.78;20.92;;;2.10;90.20;;;;;;5031885;28;20026;-73
2020/12/15 04:37:41;;;;;;;36.97;19.15;;;2.10;90.20;;;;;;5034561;28;20048;-72
2020/12/15 04:40:07;;;;;;;38.88;19.08;;;2.20;90.20;;;;;;5029029;28;20394;-71
2020/12/15 04:42:34;;;;;;;41.35;19.42;;;2.20;90.20;;;;;;5030270;28;20099;-71
2020/12/15 04:45:00;;;;;;;40.80;22.63;;;2.20;90.20;;;;;;5032054;28;20032;-71
2020/12/15 04:47:44;;;;;;;44.92;20.75;;;2.20;90.10;;;;;;5030810;28;20018;-72
2020/12/15 04:50:12;;;;;;;34.65;19.17;;;2.20;90.30;;;;;;5031178;28;20033;-71
2020/12/15 04:52:53;;;;;;;41.33;19.88;;;2.10;90.30;;;;;;5033873;28;20036;-71
2020/12/15 04:55:24;;;;;;;37.53;20.05;;;2.10;90.40;;;;;;5027390;28;20025;-72
2020/12/15 04:57:50;;;;;;;36.75;18.95;;;2.20;90.30;;;;;;5030693;28;20190;-73
2020/12/15 05:00:17;;;;;;;36.45;19.70;;;2.10;90.30;;;;;;5025490;28;20060;-72
2020/12/15 05:02:51;;;;;;;34.80;19.40;;;2.10;90.30;;;;;;5028479;28;20044;-73
2020/12/15 05:05:17;;;;;;;35.35;20.20;;;2.10;90.40;;;;;;5029338;28;20026;-73
2020/12/15 05:07:45;;;;;;;36.15;18.30;;;2.10;90.50;;;;;;5032679;28;20021;-71
2020/12/15 05:10:13;;;;;;;31.88;18.30;;;2.10;90.20;;;;;;5029994;28;20084;-73
2020/12/15 05:12:40;;;;;;;30.80;17.85;;;2.10;90.30;;;;;;5029742;28;20017;-71
2020/12/15 05:15:17;;;;;;;30.98;19.23;;;2.00;90.40;;;;;;5031385;28;20422;-72
2020/12/15 05:17:44;;;;;;;36.58;20.70;;;2.00;90.40;;;;;;5030633;28;20560;-72
2020/12/15 05:20:15;;;;;;;37.53;20.50;;;2.00;90.50;;;;;;5031466;28;20025;-71
2020/12/15 05:22:50;;;;;;;37.85;20.50;;;2.00;90.50;;;;;;5031859;28;20088;-72
2020/12/15 05:25:29;;;;;;;33.03;17.67;;;2.00;90.60;;;;;;5046040;28;20041;-71
2020/12/15 05:27:56;;;;;;;33.33;18.25;;;2.00;90.40;;;;;;5026619;28;20087;-71
2020/12/15 05:30:22;;;;;;;31.23;19.77;;;2.00;90.40;;;;;;5028231;28;20029;-72
2020/12/15 05:32:58;;;;;;;36.72;20.95;;;2.10;90.30;;;;;;5030118;28;20085;-71
2020/12/15 05:35:33;;;;;;;36.63;19.98;;;2.10;90.20;;;;;;5022136;28;20032;-71
2020/12/15 05:38:01;;;;;;;31.58;18.23;;;2.10;90.20;;;;;;5031617;28;20057;-72
2020/12/15 05:40:27;;;;;;;33.42;18.70;;;2.10;90.00;;;;;;5032547;28;20079;-71
2020/12/15 05:43:01;;;;;;;33.25;19.20;;;2.20;90.00;;;;;;5027825;28;20037;-70
2020/12/15 05:45:28;;;;;;;29.48;17.58;;;2.10;90.10;;;;;;5030743;28;20013;-71
2020/12/15 05:48:02;;;;;;;31.40;18.55;;;2.20;90.20;;;;;;5030666;28;20033;-73
2020/12/15 05:50:28;;;;;;;31.20;19.25;;;2.10;90.00;;;;;;5029434;28;20030;-72
2020/12/15 05:53:02;;;;;;;32.97;18.92;;;2.10;90.20;;;;;;5030061;28;20406;-72
2020/12/15 05:55:28;;;;;;;32.03;19.00;;;2.10;90.40;;;;;;5031745;28;20045;-73
2020/12/15 05:57:55;;;;;;;33.78;19.60;;;2.10;90.30;;;;;;5030647;28;20025;-72
2020/12/15 06:00:25;;;;;;;30.40;18.75;;;2.20;90.20;;;;;;5030363;28;20371;-73
2020/12/15 06:03:07;;;;;;;37.53;20.17;;;2.10;90.10;;;;;;5031345;28;20045;-73
2020/12/15 06:05:34;;;;;;;32.13;18.02;;;2.10;90.20;;;;;;5022855;28;20330;-73
2020/12/15 06:08:02;;;;;;;36.58;19.10;;;2.10;90.40;;;;;;5031356;28;20041;-72
2020/12/15 06:10:29;;;;;;;32.45;19.23;;;2.10;90.50;;;;;;5031968;28;20116;-72
2020/12/15 06:13:02;;;;;;;35.22;20.77;;;2.10;90.40;;;;;;5030637;28;20026;-71
2020/12/15 06:15:29;;;;;;;35.63;20.13;;;2.10;90.40;;;;;;5028153;28;20478;-70
2020/12/15 06:18:00;;;;;;;35.15;19.63;;;2.10;90.30;;;;;;5027771;28;20040;-72
2020/12/15 06:20:32;;;;;;;32.33;18.30;;;2.10;90.30;;;;;;5029505;28;20029;-73
2020/12/15 06:22:59;;;;;;;36.67;18.33;;;2.20;90.30;;;;;;5030489;28;20037;-72
2020/12/15 06:25:28;;;;;;;36.45;20.00;;;2.10;90.20;;;;;;5029930;28;20390;-73
2020/12/15 06:28:09;;;;;;;33.15;18.38;;;2.20;90.20;;;;;;5031557;28;20079;-73
2020/12/15 06:30:40;;;;;;;36.55;19.33;;;2.20;90.20;;;;;;5029481;28;20046;-70
2020/12/15 06:33:09;;;;;;;32.88;19.52;;;2.20;90.10;;;;;;5028466;28;20030;-73
2020/12/15 06:35:36;;;;;;;32.60;21.02;;;2.20;90.10;;;;;;5027831;28;20108;-71
2020/12/15 06:38:05;;;;;;;32.60;18.27;;;2.10;90.20;;;;;;5030439;28;20621;-71
2020/12/15 06:40:39;;;;;;;31.10;18.30;;;2.20;90.10;;;;;;5031394;28;20033;-72
2020/12/15 06:43:04;;;;;;;35.05;19.77;;;2.20;90.20;;;;;;5029902;28;20032;-71
2020/12/15 06:45:30;;;;;;;36.58;20.15;;;2.00;90.30;;;;;;5032776;28;20041;-73
2020/12/15 06:48:03;;;;;;;37.30;20.60;;;2.00;90.60;;;;;;5031670;28;20433;-72
2020/12/15 06:50:44;;;;;;;38.67;19.92;;;2.00;90.60;;;;;;5030916;28;20071;-71
2020/12/15 06:53:11;;;;;;;38.35;20.90;;;1.90;90.70;;;;;;5034677;28;20041;-72
2020/12/15 06:55:38;;;;;;;37.78;20.80;;;1.90;90.90;;;;;;5035941;28;20044;-72
2020/12/15 06:58:04;;;;;;;35.63;20.25;;;1.90;90.90;;;;;;5032508;28;20030;-73
2020/12/15 07:00:35;;;;;;;41.90;21.35;;;1.90;90.80;;;;;;5032722;28;20026;-71
2020/12/15 07:03:02;;;;;;;40.65;21.45;;;2.00;90.80;;;;;;5033404;28;20029;-71
2020/12/15 07:05:31;;;;;;;41.10;21.83;;;2.00;90.80;;;;;;5031752;28;20026;-70
2020/12/15 07:07:59;;;;;;;36.88;20.05;;;1.90;90.90;;;;;;5035388;28;20053;-72
2020/12/15 07:10:27;;;;;;;36.92;20.10;;;1.90;91.00;;;;;;5032548;28;20056;-71
2020/12/15 07:12:53;;;;;;;44.95;21.13;;;1.90;91.00;;;;;;5034346;28;20033;-72
2020/12/15 07:15:20;;;;;;;40.92;22.23;;;1.90;91.00;;;;;;5032083;28;20433;-69
2020/12/15 07:17:50;;;;;;;37.58;20.75;;;2.00;90.90;;;;;;5031109;28;20478;-71
2020/12/15 07:20:17;;;;;;;41.77;22.03;;;1.90;91.00;;;;;;5033229;28;20088;-73
2020/12/15 07:22:43;;;;;;;37.70;20.60;;;2.00;90.90;;;;;;5034437;28;20516;-70
2020/12/15 07:25:13;;;;;;;40.97;21.83;;;2.00;91.00;;;;;;5033969;28;20025;-72
2020/12/15 07:27:42;;;;;;;38.10;20.35;;;2.00;91.00;;;;;;5034194;28;20072;-73
2020/12/15 07:30:16;;;;;;;38.22;20.15;;;2.00;90.90;;;;;;5033998;28;20025;-70
2020/12/15 07:32:44;;;;;;;42.78;22.02;;;2.00;91.00;;;;;;5032355;28;20128;-70
2020/12/15 07:35:23;;;;;;;39.88;22.70;;;2.10;90.90;;;;;;5033513;28;20034;-71
2020/12/15 07:37:54;;;;;;;36.00;19.80;;;2.00;90.90;;;;;;5033072;28;20064;-71
2020/12/15 07:40:20;;;;;;;43.50;22.08;;;2.10;90.90;;;;;;5032320;28;20478;-72
2020/12/15 07:43:03;;;;;;;37.95;20.98;;;2.00;91.00;;;;;;5033072;28;20038;-72
2020/12/15 07:45:31;;;;;;;38.03;21.63;;;2.00;91.10;;;;;;5017764;28;20685;-72
2020/12/15 07:47:58;;;;;;;38.38;21.15;;;2.00;91.10;;;;;;5027124;28;20025;-70
2020/12/15 07:50:28;;;;;;;41.78;22.40;;;2.10;91.10;;;;;;5030425;28;20035;-72
2020/12/15 07:52:55;;;;;;;;;;;2.10;91.00;;;;;;5032684;28;20087;-71
2020/12/15 07:55:22;;;;;;;38.53;19.25;;;2.10;91.10;;;;;;5031990;28;19909;-71
2020/12/15 07:57:48;;;;;;;45.20;22.58;;;2.10;91.00;;;;;;5029630;28;20116;-72
2020/12/15 08:00:16;;;;;;;46.28;22.75;;;2.00;91.10;;;;;;5030050;28;20147;-72
2020/12/15 08:02:43;;;;;;;41.13;22.08;;;2.00;91.20;;;;;;5024251;28;20033;-72
2020/12/15 08:05:27;;;;;;;44.22;22.20;;;2.00;91.30;;;;;;5029038;28;20029;-70
2020/12/15 08:07:57;;;;;;;45.55;21.77;;;2.00;91.40;;;;;;5017800;28;20053;-70
2020/12/15 08:10:32;;;;;;;42.95;21.63;;;2.00;91.50;;;;;;5028105;28;20025;-71
2020/12/15 08:13:03;;;;;;;44.00;22.15;;;2.00;91.50;;;;;;5028746;28;20474;-70
2020/12/15 08:15:30;;;;;;;40.53;21.67;;;2.00;91.50;;;;;;5022808;28;20095;-74
2020/12/15 08:17:56;;;;;;;52.28;25.88;;;2.10;91.60;;;;;;5023976;28;20544;-71
2020/12/15 08:20:33;;;;;;;41.60;21.67;;;2.10;91.60;;;;;;5024983;28;20029;-72
2020/12/15 08:23:13;;;;;;;43.85;22.98;;;2.10;91.40;;;;;;5023854;28;20100;-70
2020/12/15 08:25:45;;;;;;;47.80;23.75;;;2.20;91.30;;;;;;5022975;28;20038;-67
2020/12/15 08:28:21;;;;;;;50.00;24.63;;;2.20;91.30;;;;;;5025486;28;20049;-67
2020/12/15 08:30:51;;;;;;;45.90;23.00;;;2.20;91.30;;;;;;5025566;28;20049;-71
2020/12/15 08:33:22;;;;;;;49.25;26.38;;;2.20;91.30;;;;;;5020246;28;20028;-69
2020/12/15 08:35:49;;;;;;;51.60;25.75;;;2.20;91.30;;;;;;5026011;28;20028;-67
2020/12/15 08:38:15;;;;;;;46.28;24.13;;;2.30;91.30;;;;;;5019952;28;20495;-68
2020/12/15 08:40:44;;;;;;;47.08;23.85;;;2.20;91.30;;;;;;5029978;28;20036;-69
2020/12/15 08:43:15;;;;;;;48.97;24.63;;;2.30;91.40;;;;;;5026361;28;20061;-67
2020/12/15 08:45:41;;;;;;;52.70;27.27;;;2.30;91.40;;;;;;5024619;28;20029;-69
2020/12/15 08:48:18;;;;;;;49.45;24.52;;;2.20;91.40;;;;;;5023078;28;20021;-65
2020/12/15 08:50:44;;;;;;;51.88;25.33;;;2.30;91.70;;;;;;5026043;28;20034;-66
2020/12/15 08:53:11;;;;;;;51.92;26.15;;;2.30;91.50;;;;;;5026928;28;20457;-68
2020/12/15 08:55:40;;;;;;;51.35;25.70;;;2.30;91.50;;;;;;5032210;28;20025;-65
2020/12/15 08:58:08;;;;;;;56.70;27.02;;;2.30;91.40;;;;;;5027533;28;20570;-67
2020/12/15 09:00:36;;;;;;;56.08;30.13;;;2.30;91.40;;;;;;5024730;28;20414;-65
2020/12/15 09:03:10;;;;;;;59.72;31.05;;;2.30;91.50;;;;;;5026658;28;20444;-65
2020/12/15 09:06:05;;;;;;;55.05;28.90;;;2.30;91.50;;;;;;5023538;28;20033;-69
2020/12/15 09:08:30;;;;;;;61.70;30.83;;;2.30;91.30;;;;;;5018766;28;20108;-72
2020/12/15 09:10:57;;;;;;;64.63;32.90;;;2.40;91.40;;;;;;5025207;28;20430;-72
2020/12/15 09:13:25;;;;;;;66.07;34.33;;;2.40;91.20;;;;;;5042878;28;20498;-72
2020/12/15 09:15:57;;;;;;;72.80;37.58;;;2.50;91.30;;;;;;5026849;28;20116;-70
2020/12/15 09:18:30;;;;;;;73.72;35.20;;;2.60;91.10;;;;;;5022402;28;20029;-67
2020/12/15 09:20:56;;;;;;;72.40;37.63;;;2.60;91.10;;;;;;5026927;28;20021;-66
2020/12/15 09:23:27;;;;;;;69.15;35.80;;;2.60;91.00;;;;;;5024391;28;20136;-69
2020/12/15 09:25:54;;;;;;;77.47;40.75;;;2.60;90.90;;;;;;5026451;28;20495;-65
2020/12/15 09:28:27;;;;;;;73.72;38.45;;;2.60;91.00;;;;;;5029820;28;20143;-69
2020/12/15 09:30:53;;;;;;;78.63;40.10;;;2.60;91.00;;;;;;5023542;28;20064;-65
2020/12/15 09:33:19;;;;;;;77.55;40.15;;;2.50;91.10;;;;;;5026688;28;20033;-65
2020/12/15 09:35:47;;;;;;;79.03;38.55;;;2.60;91.10;;;;;;5026491;28;20026;-65
2020/12/15 09:38:13;;;;;;;88.90;41.30;;;2.50;91.10;;;;;;5040891;28;20161;-64
2020/12/15 09:40:39;;;;;;;88.50;42.78;;;2.60;91.20;;;;;;5024614;28;20018;-69
2020/12/15 09:43:05;;;;;;;78.90;41.92;;;2.60;91.10;;;;;;5030619;28;20893;-68
2020/12/15 09:45:31;;;;;;;85.93;41.45;;;2.60;91.00;;;;;;5024753;28;20045;-65
2020/12/15 09:47:59;;;;;;;85.20;41.65;;;2.70;91.00;;;;;;5018091;28;20026;-70
2020/12/15 09:50:25;;;;;;;79.18;40.40;;;2.70;90.80;;;;;;5023678;28;20030;-67
2020/12/15 09:52:51;;;;;;;77.28;40.58;;;2.70;90.80;;;;;;5023255;28;20033;-68
2020/12/15 09:55:17;;;;;;;82.78;40.15;;;2.70;90.80;;;;;;5025624;28;20367;-65
2020/12/15 09:57:43;;;;;;;77.72;40.65;;;2.70;90.70;;;;;;5022194;28;20182;-69
2020/12/15 10:00:08;;;;;;;79.47;42.53;;;2.70;90.80;;;;;;5027502;28;20487;-67
2020/12/15 10:02:34;;;;;;;85.80;43.95;;;2.80;90.70;;;;;;5023075;28;20091;-71
2020/12/15 10:05:00;;;;;;;88.63;40.67;;;2.70;90.80;;;;;;5024543;28;20182;-72
2020/12/15 10:07:26;;;;;;;78.65;38.40;;;2.70;90.80;;;;;;5025252;28;20033;-70
2020/12/15 10:09:57;;;;;;;84.25;41.55;;;2.80;91.10;;;;;;5028106;28;20034;-67
2020/12/15 10:12:23;;;;;;;87.70;41.00;;;2.70;90.60;;;;;;5028627;28;20036;-67
2020/12/15 10:14:49;;;;;;;83.22;41.25;;;2.80;90.80;;;;;;5026761;28;20033;-68
2020/12/15 10:17:14;;;;;;;85.07;41.90;;;2.80;90.70;;;;;;5022773;28;20078;-68
2020/12/15 10:19:40;;;;;;;83.35;41.95;;;2.80;90.80;;;;;;5025983;28;20029;-66
2020/12/15 10:22:06;;;;;;;82.57;42.03;;;2.70;90.60;;;;;;5025857;28;20037;-67
2020/12/15 10:24:31;;;;;;;81.07;39.30;;;2.80;90.80;;;;;;5026760;28;20029;-70
2020/12/15 10:26:57;;;;;;;77.80;40.10;;;2.80;90.90;;;;;;5023594;28;20088;-68
2020/12/15 10:29:26;;;;;;;70.68;38.60;;;2.80;90.80;;;;;;5025013;28;20383;-69
2020/12/15 10:31:52;;;;;;;83.03;41.83;;;2.70;90.80;;;;;;5021724;28;20054;-66
2020/12/15 10:34:18;;;;;;;88.40;41.42;;;2.60;91.00;;;;;;5019971;28;20048;-66
2020/12/15 10:36:47;;;;;;;70.45;36.88;;;2.70;91.00;;;;;;5023374;28;20030;-69
2020/12/15 10:39:13;;;;;;;76.95;38.42;;;2.70;90.80;;;;;;5019719;28;20057;-69
2020/12/15 10:41:41;;;;;;;69.78;37.80;;;2.70;90.90;;;;;;5016515;28;20069;-69
2020/12/15 10:44:13;;;;;;;68.97;36.95;;;2.80;91.00;;;;;;5028132;28;20457;-69
2020/12/15 10:46:39;;;;;;;72.95;37.55;;;2.80;90.90;;;;;;5025155;28;20057;-67
2020/12/15 10:49:04;;;;;;;72.55;35.65;;;2.90;90.80;;;;;;5027006;28;20064;-67
2020/12/15 10:51:30;;;;;;;63.72;34.58;;;2.90;90.70;;;;;;5026339;28;20037;-68
2020/12/15 10:53:56;;;;;;;70.30;36.80;;;2.90;90.60;;;;;;5026608;28;20513;-70
2020/12/15 10:56:22;;;;;;;67.93;36.45;;;2.90;90.50;;;;;;5022763;28;20022;-69
2020/12/15 10:58:48;;;;;;;73.40;38.83;;;2.90;90.50;;;;;;5027800;28;20022;-71
2020/12/15 11:01:14;;;;;;;73.20;40.08;;;2.90;90.50;;;;;;5021641;28;20407;-70
2020/12/15 11:03:40;;;;;;;71.32;36.47;;;2.90;90.50;;;;;;5020394;28;20040;-68
2020/12/15 11:06:06;;;;;;;78.70;38.67;;;2.90;90.70;;;;;;5027469;28;20057;-69
2020/12/15 11:08:32;;;;;;;73.63;37.45;;;2.90;90.60;;;;;;5025831;28;20096;-70
2020/12/15 11:10:58;;;;;;;71.72;37.42;;;2.90;90.50;;;;;;5022705;28;20037;-72
2020/12/15 11:13:23;;;;;;;67.57;36.17;;;2.90;90.60;;;;;;5021841;28;20089;-71
2020/12/15 11:15:50;;;;;;;71.28;36.17;;;2.90;90.60;;;;;;5025578;28;20037;-71
2020/12/15 11:18:17;;;;;;;69.30;37.63;;;2.80;90.80;;;;;;5023872;28;20032;-72
2020/12/15 11:20:43;;;;;;;72.50;38.70;;;2.80;90.70;;;;;;5027280;28;20026;-69
2020/12/15 11:23:08;;;;;;;71.68;37.20;;;2.80;90.70;;;;;;5027586;28;20128;-69
2020/12/15 11:25:34;;;;;;;71.35;39.45;;;2.80;90.60;;;;;;5028754;28;20404;-69
2020/12/15 11:28:00;;;;;;;67.00;36.53;;;2.80;90.70;;;;;;5024129;28;20029;-70
2020/12/15 11:30:26;;;;;;;73.90;38.30;;;2.80;90.90;;;;;;5027687;28;20040;-68
2020/12/15 11:32:52;;;;;;;71.40;38.95;;;2.80;90.80;;;;;;5027161;28;20025;-69
2020/12/15 11:35:18;;;;;;;73.55;38.78;;;2.80;90.90;;;;;;5026126;28;20025;-67
2020/12/15 11:37:44;;;;;;;72.07;38.00;;;2.80;91.00;;;;;;5032550;28;20042;-68
2020/12/15 11:40:12;;;;;;;70.90;38.47;;;2.90;90.90;;;;;;5031029;28;20290;-65
2020/12/15 11:42:38;;;;;;;73.75;40.38;;;2.90;90.70;;;;;;5026199;28;20482;-66
2020/12/15 11:45:05;;;;;;;72.10;38.67;;;2.90;90.70;;;;;;5026586;28;20105;-67
2020/12/15 11:47:31;;;;;;;73.68;40.95;;;3.00;90.70;;;;;;5028677;28;20087;-68
2020/12/15 11:49:57;;;;;;;71.47;39.90;;;3.00;90.60;;;;;;5037380;28;20033;-71
2020/12/15 11:52:23;;;;;;;69.63;38.88;;;3.00;90.70;;;;;;5034903;28;20087;-72
2020/12/15 11:54:49;;;;;;;68.00;37.50;;;3.00;90.50;;;;;;5032651;28;20034;-71
2020/12/15 11:57:15;;;;;;;75.43;37.90;;;3.10;90.60;;;;;;5029174;28;20489;-72
2020/12/15 11:59:41;;;;;;;70.20;38.33;;;3.00;90.60;;;;;;5023494;28;20084;-69
2020/12/15 12:02:07;;;;;;;70.50;40.35;;;3.00;90.80;;;;;;5025222;28;20036;-69
2020/12/15 12:04:33;;;;;;;71.18;39.10;;;3.00;90.80;;;;;;5025064;28;20030;-71
2020/12/15 12:06:59;;;;;;;69.97;36.90;;;3.00;90.70;;;;;;5019192;28;20042;-70
2020/12/15 12:09:24;;;;;;;69.70;38.58;;;3.00;90.70;;;;;;5023688;28;20029;-70
2020/12/15 12:11:50;;;;;;;69.05;38.70;;;3.00;90.60;;;;;;5025414;28;20071;-73
2020/12/15 12:14:18;;;;;;;72.03;39.40;;;3.10;90.70;;;;;;5024353;28;20505;-70
2020/12/15 12:16:44;;;;;;;70.88;39.45;;;3.10;90.60;;;;;;5027648;28;20044;-69
2020/12/15 12:19:10;;;;;;;69.88;38.17;;;3.10;90.50;;;;;;5027649;28;20402;-69
2020/12/15 12:21:38;;;;;;;68.15;38.40;;;3.10;90.50;;;;;;5026055;28;20069;-73
2020/12/15 12:24:04;;;;;;;64.70;37.00;;;3.10;90.30;;;;;;5027406;28;20083;-70
2020/12/15 12:26:30;;;;;;;69.70;37.25;;;3.10;90.50;;;;;;5027736;28;20059;-72
2020/12/15 12:28:56;;;;;;;66.93;36.65;;;3.10;90.60;;;;;;5029792;28;20029;-68
2020/12/15 12:31:22;;;;;;;65.75;35.78;;;3.10;90.60;;;;;;5020316;28;20449;-71
2020/12/15 12:33:48;;;;;;;68.25;37.45;;;3.00;90.60;;;;;;5026846;28;20018;-68
2020/12/15 12:36:14;;;;;;;68.65;38.35;;;2.90;90.70;;;;;;5023082;28;20148;-71
2020/12/15 12:38:40;;;;;;;75.07;38.40;;;3.00;91.00;;;;;;5030155;28;20033;-67
2020/12/15 12:41:06;;;;;;;69.32;37.42;;;3.00;90.80;;;;;;5024125;28;20450;-69